sensor_id;sensor_type;location;lat;lon;timestamp;temperature;humidity
19538;DHT22;9914;51.008;4.300;2022-10-31T00:00:47;15.10;99.90
19538;DHT22;9914;51.008;4.300;2022-10-31T00:03:13;15.20;99.90
19538;DHT22;9914;51.008;4.300;2022-10-31T00:05:43;15.10;99.90
19538;DHT22;9914;51.008;4.300;2022-10-31T00:08:09;15.00;99.90
19538;DHT22;9914;51.008;4.300;2022-10-31T00:10:39;15.00;99.90
19538;DHT22;9914;51.008;4.300;2022-10-31T00:13:07;14.90;99.90
19538;DHT22;9914;51.008;4.300;2022-10-31T00:15:34;14.80;99.90
19538;DHT22;9914;51.008;4.300;2022-10-31T00:18:00;14.90;99.90
19538;DHT22;9914;51.008;4.300;2022-10-31T00:20:25;14.80;99.90
19538;DHT22;9914;51.008;4.300;2022-10-31T00:22:51;14.80;99.90
19538;DHT22;9914;51.008;4.300;2022-10-31T00:25:19;14.80;99.90
19538;DHT22;9914;51.008;4.300;2022-10-31T00:27:49;14.70;99.90
19538;DHT22;9914;51.008;4.300;2022-10-31T00:30:14;14.60;99.90
19538;DHT22;9914;51.008;4.300;2022-10-31T00:32:40;14.60;99.90
19538;DHT22;9914;51.008;4.300;2022-10-31T00:35:06;14.60;99.90
19538;DHT22;9914;51.008;4.300;2022-10-31T00:37:32;14.40;99.90
19538;DHT22;9914;51.008;4.300;2022-10-31T00:39:58;14.30;99.90
19538;DHT22;9914;51.008;4.300;2022-10-31T00:42:26;14.20;99.90
19538;DHT22;9914;51.008;4.300;2022-10-31T00:44:52;14.20;99.90
19538;DHT22;9914;51.008;4.300;2022-10-31T00:47:17;14.20;99.90
19538;DHT22;9914;51.008;4.300;2022-10-31T00:49:44;14.10;99.90
19538;DHT22;9914;51.008;4.300;2022-10-31T00:52:11;14.10;99.90
19538;DHT22;9914;51.008;4.300;2022-10-31T00:54:36;14.20;99.90
19538;DHT22;9914;51.008;4.300;2022-10-31T00:57:02;14.00;99.90
19538;DHT22;9914;51.008;4.300;2022-10-31T00:59:29;14.00;99.90
19538;DHT22;9914;51.008;4.300;2022-10-31T01:01:54;13.90;99.90
19538;DHT22;9914;51.008;4.300;2022-10-31T01:04:20;14.00;99.90
19538;DHT22;9914;51.008;4.300;2022-10-31T01:06:46;13.90;99.90
19538;DHT22;9914;51.008;4.300;2022-10-31T01:09:11;13.70;99.90
19538;DHT22;9914;51.008;4.300;2022-10-31T01:11:37;13.70;99.90
19538;DHT22;9914;51.008;4.300;2022-10-31T01:14:03;13.60;99.90
19538;DHT22;9914;51.008;4.300;2022-10-31T01:16:28;13.60;99.90
19538;DHT22;9914;51.008;4.300;2022-10-31T01:18:58;13.50;99.90
19538;DHT22;9914;51.008;4.300;2022-10-31T01:21:26;13.60;99.90
19538;DHT22;9914;51.008;4.300;2022-10-31T01:23:55;13.60;99.90
19538;DHT22;9914;51.008;4.300;2022-10-31T01:26:24;13.70;99.90
19538;DHT22;9914;51.008;4.300;2022-10-31T01:28:56;13.60;99.90
19538;DHT22;9914;51.008;4.300;2022-10-31T01:31:24;13.60;99.90
19538;DHT22;9914;51.008;4.300;2022-10-31T01:33:51;13.60;99.90
19538;DHT22;9914;51.008;4.300;2022-10-31T01:38:46;13.40;99.90
19538;DHT22;9914;51.008;4.300;2022-10-31T01:41:13;13.30;99.90
19538;DHT22;9914;51.008;4.300;2022-10-31T01:44:00;13.30;99.90
19538;DHT22;9914;51.008;4.300;2022-10-31T01:46:31;13.20;99.90
19538;DHT22;9914;51.008;4.300;2022-10-31T01:49:01;13.20;99.90
19538;DHT22;9914;51.008;4.300;2022-10-31T01:51:32;13.10;99.90
19538;DHT22;9914;51.008;4.300;2022-10-31T01:54:02;13.20;99.90
19538;DHT22;9914;51.008;4.300;2022-10-31T01:56:32;13.20;99.90
19538;DHT22;9914;51.008;4.300;2022-10-31T01:59:01;13.20;99.90
19538;DHT22;9914;51.008;4.300;2022-10-31T02:01:30;13.10;99.90
19538;DHT22;9914;51.008;4.300;2022-10-31T02:03:56;13.10;99.90
19538;DHT22;9914;51.008;4.300;2022-10-31T02:06:31;13.10;99.90
19538;DHT22;9914;51.008;4.300;2022-10-31T02:08:59;13.10;99.90
19538;DHT22;9914;51.008;4.300;2022-10-31T02:11:27;13.10;99.90
19538;DHT22;9914;51.008;4.300;2022-10-31T02:13:54;13.10;99.90
19538;DHT22;9914;51.008;4.300;2022-10-31T02:16:19;13.10;99.90
19538;DHT22;9914;51.008;4.300;2022-10-31T02:18:45;13.20;99.90
19538;DHT22;9914;51.008;4.300;2022-10-31T02:30:02;13.00;99.90
19538;DHT22;9914;51.008;4.300;2022-10-31T02:32:51;12.90;99.90
19538;DHT22;9914;51.008;4.300;2022-10-31T02:37:57;12.70;99.90
19538;DHT22;9914;51.008;4.300;2022-10-31T02:40:56;12.70;99.90
19538;DHT22;9914;51.008;4.300;2022-10-31T02:46:39;12.80;99.90
19538;DHT22;9914;51.008;4.300;2022-10-31T02:51:45;12.60;99.90
19538;DHT22;9914;51.008;4.300;2022-10-31T02:54:23;12.60;99.90
19538;DHT22;9914;51.008;4.300;2022-10-31T02:56:50;12.50;99.90
19538;DHT22;9914;51.008;4.300;2022-10-31T02:59:21;12.60;99.90
19538;DHT22;9914;51.008;4.300;2022-10-31T03:02:00;12.80;99.90
19538;DHT22;9914;51.008;4.300;2022-10-31T03:04:38;12.50;99.90
19538;DHT22;9914;51.008;4.300;2022-10-31T03:10:04;12.40;99.90
19538;DHT22;9914;51.008;4.300;2022-10-31T03:15:30;12.20;99.90
19538;DHT22;9914;51.008;4.300;2022-10-31T03:20:51;12.40;99.90
19538;DHT22;9914;51.008;4.300;2022-10-31T03:23:22;12.50;99.90
19538;DHT22;9914;51.008;4.300;2022-10-31T03:25:49;12.40;99.90
19538;DHT22;9914;51.008;4.300;2022-10-31T03:28:19;12.30;99.90
19538;DHT22;9914;51.008;4.300;2022-10-31T03:30:49;12.30;99.90
19538;DHT22;9914;51.008;4.300;2022-10-31T03:33:19;12.30;99.90
19538;DHT22;9914;51.008;4.300;2022-10-31T03:35:48;12.30;99.90
19538;DHT22;9914;51.008;4.300;2022-10-31T03:38:18;12.30;99.90
19538;DHT22;9914;51.008;4.300;2022-10-31T03:40:46;12.30;99.90
19538;DHT22;9914;51.008;4.300;2022-10-31T03:43:19;12.30;99.90
19538;DHT22;9914;51.008;4.300;2022-10-31T03:45:47;12.30;99.90
19538;DHT22;9914;51.008;4.300;2022-10-31T03:48:14;12.30;99.90
19538;DHT22;9914;51.008;4.300;2022-10-31T03:51:09;12.20;99.90
19538;DHT22;9914;51.008;4.300;2022-10-31T04:01:24;12.10;99.90
19538;DHT22;9914;51.008;4.300;2022-10-31T04:03:53;12.20;99.90
19538;DHT22;9914;51.008;4.300;2022-10-31T04:06:21;12.10;99.90
19538;DHT22;9914;51.008;4.300;2022-10-31T04:08:53;12.10;99.90
19538;DHT22;9914;51.008;4.300;2022-10-31T04:11:25;12.00;99.90
19538;DHT22;9914;51.008;4.300;2022-10-31T04:13:53;11.80;99.90
19538;DHT22;9914;51.008;4.300;2022-10-31T04:16:20;11.90;99.90
19538;DHT22;9914;51.008;4.300;2022-10-31T04:18:47;11.80;99.90
19538;DHT22;9914;51.008;4.300;2022-10-31T04:21:13;11.80;99.90
19538;DHT22;9914;51.008;4.300;2022-10-31T04:23:41;11.80;99.90
19538;DHT22;9914;51.008;4.300;2022-10-31T04:26:10;11.60;99.90
19538;DHT22;9914;51.008;4.300;2022-10-31T04:28:37;11.60;99.90
19538;DHT22;9914;51.008;4.300;2022-10-31T04:31:04;11.70;99.90
19538;DHT22;9914;51.008;4.300;2022-10-31T04:33:30;11.70;99.90
19538;DHT22;9914;51.008;4.300;2022-10-31T04:35:57;11.70;99.90
19538;DHT22;9914;51.008;4.300;2022-10-31T04:38:23;11.60;99.90
19538;DHT22;9914;51.008;4.300;2022-10-31T04:40:49;11.70;99.90
19538;DHT22;9914;51.008;4.300;2022-10-31T04:43:14;11.70;99.90
19538;DHT22;9914;51.008;4.300;2022-10-31T04:45:42;11.80;99.90
19538;DHT22;9914;51.008;4.300;2022-10-31T04:48:09;11.80;99.90
19538;DHT22;9914;51.008;4.300;2022-10-31T04:50:35;11.80;99.90
19538;DHT22;9914;51.008;4.300;2022-10-31T04:53:02;11.90;99.90
19538;DHT22;9914;51.008;4.300;2022-10-31T04:55:28;11.90;99.90
19538;DHT22;9914;51.008;4.300;2022-10-31T04:57:53;11.90;99.90
19538;DHT22;9914;51.008;4.300;2022-10-31T05:00:21;11.90;99.90
19538;DHT22;9914;51.008;4.300;2022-10-31T05:02:49;11.90;99.90
19538;DHT22;9914;51.008;4.300;2022-10-31T05:05:16;11.80;99.90
19538;DHT22;9914;51.008;4.300;2022-10-31T05:07:44;11.90;99.90
19538;DHT22;9914;51.008;4.300;2022-10-31T05:10:12;11.90;99.90
19538;DHT22;9914;51.008;4.300;2022-10-31T05:12:49;11.70;99.90
19538;DHT22;9914;51.008;4.300;2022-10-31T05:15:16;11.80;99.90
19538;DHT22;9914;51.008;4.300;2022-10-31T05:17:42;11.80;99.90
19538;DHT22;9914;51.008;4.300;2022-10-31T05:20:09;11.80;99.90
19538;DHT22;9914;51.008;4.300;2022-10-31T05:22:36;11.80;99.90
19538;DHT22;9914;51.008;4.300;2022-10-31T05:25:03;11.90;99.90
19538;DHT22;9914;51.008;4.300;2022-10-31T05:27:31;11.80;99.90
19538;DHT22;9914;51.008;4.300;2022-10-31T05:29:56;11.80;99.90
19538;DHT22;9914;51.008;4.300;2022-10-31T05:32:24;11.70;99.90
19538;DHT22;9914;51.008;4.300;2022-10-31T05:34:50;11.70;99.90
19538;DHT22;9914;51.008;4.300;2022-10-31T05:37:15;11.70;99.90
19538;DHT22;9914;51.008;4.300;2022-10-31T05:39:41;11.80;99.90
19538;DHT22;9914;51.008;4.300;2022-10-31T05:42:06;11.90;99.90
19538;DHT22;9914;51.008;4.300;2022-10-31T05:44:33;11.90;99.90
19538;DHT22;9914;51.008;4.300;2022-10-31T05:46:58;11.90;99.90
19538;DHT22;9914;51.008;4.300;2022-10-31T05:49:24;11.90;99.90
19538;DHT22;9914;51.008;4.300;2022-10-31T05:51:50;11.90;99.90
19538;DHT22;9914;51.008;4.300;2022-10-31T05:54:15;12.20;99.90
19538;DHT22;9914;51.008;4.300;2022-10-31T05:56:42;12.20;99.90
19538;DHT22;9914;51.008;4.300;2022-10-31T05:59:08;12.10;99.90
19538;DHT22;9914;51.008;4.300;2022-10-31T06:01:33;12.10;99.90
19538;DHT22;9914;51.008;4.300;2022-10-31T06:03:59;12.10;99.90
19538;DHT22;9914;51.008;4.300;2022-10-31T06:06:24;12.20;99.90
19538;DHT22;9914;51.008;4.300;2022-10-31T06:08:50;12.30;99.90
19538;DHT22;9914;51.008;4.300;2022-10-31T06:11:16;12.30;99.90
19538;DHT22;9914;51.008;4.300;2022-10-31T06:13:41;12.30;99.90
19538;DHT22;9914;51.008;4.300;2022-10-31T06:16:07;12.40;99.90
19538;DHT22;9914;51.008;4.300;2022-10-31T06:18:32;12.50;99.90
19538;DHT22;9914;51.008;4.300;2022-10-31T06:20:58;12.50;99.90
19538;DHT22;9914;51.008;4.300;2022-10-31T06:23:24;12.50;99.90
19538;DHT22;9914;51.008;4.300;2022-10-31T06:25:50;12.60;99.90
19538;DHT22;9914;51.008;4.300;2022-10-31T06:28:16;12.50;99.90
19538;DHT22;9914;51.008;4.300;2022-10-31T06:30:43;12.60;99.90
19538;DHT22;9914;51.008;4.300;2022-10-31T06:33:09;12.50;99.90
19538;DHT22;9914;51.008;4.300;2022-10-31T06:35:35;12.60;99.90
19538;DHT22;9914;51.008;4.300;2022-10-31T06:38:01;12.60;99.90
19538;DHT22;9914;51.008;4.300;2022-10-31T06:40:26;12.70;99.90
19538;DHT22;9914;51.008;4.300;2022-10-31T06:43:01;12.70;99.90
19538;DHT22;9914;51.008;4.300;2022-10-31T06:45:28;13.00;99.90
19538;DHT22;9914;51.008;4.300;2022-10-31T06:47:55;13.00;99.90
19538;DHT22;9914;51.008;4.300;2022-10-31T06:50:22;13.00;99.90
19538;DHT22;9914;51.008;4.300;2022-10-31T06:52:58;13.10;99.90
19538;DHT22;9914;51.008;4.300;2022-10-31T06:55:25;13.10;99.90
19538;DHT22;9914;51.008;4.300;2022-10-31T06:57:59;13.10;99.90
19538;DHT22;9914;51.008;4.300;2022-10-31T07:00:26;13.10;99.90
19538;DHT22;9914;51.008;4.300;2022-10-31T07:02:56;13.20;99.90
19538;DHT22;9914;51.008;4.300;2022-10-31T07:05:22;13.20;99.90
19538;DHT22;9914;51.008;4.300;2022-10-31T07:07:52;13.20;99.90
19538;DHT22;9914;51.008;4.300;2022-10-31T07:10:21;13.30;99.90
19538;DHT22;9914;51.008;4.300;2022-10-31T07:12:46;13.20;99.90
19538;DHT22;9914;51.008;4.300;2022-10-31T07:15:12;13.30;99.90
19538;DHT22;9914;51.008;4.300;2022-10-31T07:17:39;13.50;99.90
19538;DHT22;9914;51.008;4.300;2022-10-31T07:20:06;13.50;99.90
19538;DHT22;9914;51.008;4.300;2022-10-31T07:22:35;13.50;99.90
19538;DHT22;9914;51.008;4.300;2022-10-31T07:25:01;13.70;99.90
19538;DHT22;9914;51.008;4.300;2022-10-31T07:27:27;13.80;99.90
19538;DHT22;9914;51.008;4.300;2022-10-31T07:29:55;13.90;99.90
19538;DHT22;9914;51.008;4.300;2022-10-31T07:32:24;13.80;99.90
19538;DHT22;9914;51.008;4.300;2022-10-31T07:34:51;13.80;99.90
19538;DHT22;9914;51.008;4.300;2022-10-31T07:37:18;13.80;99.90
19538;DHT22;9914;51.008;4.300;2022-10-31T07:39:48;13.80;99.90
19538;DHT22;9914;51.008;4.300;2022-10-31T07:42:13;13.90;99.90
19538;DHT22;9914;51.008;4.300;2022-10-31T07:44:39;13.90;99.90
19538;DHT22;9914;51.008;4.300;2022-10-31T07:47:05;14.10;99.90
19538;DHT22;9914;51.008;4.300;2022-10-31T07:49:30;14.20;99.90
19538;DHT22;9914;51.008;4.300;2022-10-31T07:51:58;14.20;99.90
19538;DHT22;9914;51.008;4.300;2022-10-31T07:54:24;14.20;99.90
19538;DHT22;9914;51.008;4.300;2022-10-31T07:56:49;14.40;99.90
19538;DHT22;9914;51.008;4.300;2022-10-31T07:59:15;14.30;99.90
19538;DHT22;9914;51.008;4.300;2022-10-31T08:01:43;14.50;99.90
19538;DHT22;9914;51.008;4.300;2022-10-31T08:04:09;14.80;99.90
19538;DHT22;9914;51.008;4.300;2022-10-31T08:06:34;14.80;99.90
19538;DHT22;9914;51.008;4.300;2022-10-31T08:09:00;14.80;99.90
19538;DHT22;9914;51.008;4.300;2022-10-31T08:11:26;14.90;99.90
19538;DHT22;9914;51.008;4.300;2022-10-31T08:13:52;15.00;99.90
19538;DHT22;9914;51.008;4.300;2022-10-31T08:16:18;15.00;99.90
19538;DHT22;9914;51.008;4.300;2022-10-31T08:18:43;15.20;99.90
19538;DHT22;9914;51.008;4.300;2022-10-31T08:21:14;15.10;99.90
19538;DHT22;9914;51.008;4.300;2022-10-31T08:23:41;15.10;99.90
19538;DHT22;9914;51.008;4.300;2022-10-31T08:26:07;15.30;99.90
19538;DHT22;9914;51.008;4.300;2022-10-31T08:28:33;15.40;99.90
19538;DHT22;9914;51.008;4.300;2022-10-31T08:30:59;15.50;99.90
19538;DHT22;9914;51.008;4.300;2022-10-31T08:33:25;15.60;99.90
19538;DHT22;9914;51.008;4.300;2022-10-31T08:35:52;15.50;99.90
19538;DHT22;9914;51.008;4.300;2022-10-31T08:38:17;15.40;99.90
19538;DHT22;9914;51.008;4.300;2022-10-31T08:40:43;15.60;99.90
19538;DHT22;9914;51.008;4.300;2022-10-31T08:43:13;15.70;99.90
19538;DHT22;9914;51.008;4.300;2022-10-31T08:45:40;15.80;99.90
19538;DHT22;9914;51.008;4.300;2022-10-31T08:48:11;15.90;99.90
19538;DHT22;9914;51.008;4.300;2022-10-31T08:50:38;15.80;99.90
19538;DHT22;9914;51.008;4.300;2022-10-31T08:53:11;15.70;99.90
19538;DHT22;9914;51.008;4.300;2022-10-31T08:55:38;15.80;99.90
19538;DHT22;9914;51.008;4.300;2022-10-31T08:58:09;15.60;99.90
19538;DHT22;9914;51.008;4.300;2022-10-31T09:00:35;15.70;99.90
19538;DHT22;9914;51.008;4.300;2022-10-31T09:03:04;15.50;99.90
19538;DHT22;9914;51.008;4.300;2022-10-31T09:05:31;15.50;99.90
19538;DHT22;9914;51.008;4.300;2022-10-31T09:08:02;15.70;99.90
19538;DHT22;9914;51.008;4.300;2022-10-31T09:10:29;16.00;99.90
19538;DHT22;9914;51.008;4.300;2022-10-31T09:13:10;16.10;99.90
19538;DHT22;9914;51.008;4.300;2022-10-31T09:15:38;16.20;99.90
19538;DHT22;9914;51.008;4.300;2022-10-31T09:18:05;16.30;99.90
19538;DHT22;9914;51.008;4.300;2022-10-31T09:20:32;16.20;99.90
19538;DHT22;9914;51.008;4.300;2022-10-31T09:23:00;16.10;99.90
19538;DHT22;9914;51.008;4.300;2022-10-31T09:25:26;15.90;99.90
19538;DHT22;9914;51.008;4.300;2022-10-31T09:27:59;16.00;99.90
19538;DHT22;9914;51.008;4.300;2022-10-31T09:30:27;16.00;99.90
19538;DHT22;9914;51.008;4.300;2022-10-31T09:33:00;16.10;99.90
19538;DHT22;9914;51.008;4.300;2022-10-31T09:35:27;16.00;99.90
19538;DHT22;9914;51.008;4.300;2022-10-31T09:37:58;16.00;99.90
19538;DHT22;9914;51.008;4.300;2022-10-31T09:40:32;16.10;99.90
19538;DHT22;9914;51.008;4.300;2022-10-31T09:43:12;16.10;99.90
19538;DHT22;9914;51.008;4.300;2022-10-31T09:56:15;16.20;99.90
19538;DHT22;9914;51.008;4.300;2022-10-31T09:58:53;16.20;99.90
19538;DHT22;9914;51.008;4.300;2022-10-31T10:04:42;16.30;99.90
19538;DHT22;9914;51.008;4.300;2022-10-31T10:07:16;16.40;99.90
19538;DHT22;9914;51.008;4.300;2022-10-31T10:09:44;16.60;99.90
19538;DHT22;9914;51.008;4.300;2022-10-31T10:17:38;16.90;99.90
19538;DHT22;9914;51.008;4.300;2022-10-31T10:20:23;17.10;99.90
19538;DHT22;9914;51.008;4.300;2022-10-31T10:22:57;17.30;99.90
19538;DHT22;9914;51.008;4.300;2022-10-31T10:25:34;17.30;99.90
19538;DHT22;9914;51.008;4.300;2022-10-31T10:31:05;17.40;99.90
19538;DHT22;9914;51.008;4.300;2022-10-31T10:33:39;17.60;99.90
19538;DHT22;9914;51.008;4.300;2022-10-31T10:36:13;17.50;99.90
19538;DHT22;9914;51.008;4.300;2022-10-31T10:41:20;17.50;99.90
19538;DHT22;9914;51.008;4.300;2022-10-31T10:43:49;17.50;99.90
19538;DHT22;9914;51.008;4.300;2022-10-31T10:46:19;17.60;99.90
19538;DHT22;9914;51.008;4.300;2022-10-31T10:51:41;17.60;99.90
19538;DHT22;9914;51.008;4.300;2022-10-31T10:59:48;17.60;99.90
19538;DHT22;9914;51.008;4.300;2022-10-31T11:02:25;17.60;99.90
19538;DHT22;9914;51.008;4.300;2022-10-31T11:04:54;17.80;99.90
19538;DHT22;9914;51.008;4.300;2022-10-31T11:07:20;17.80;99.90
19538;DHT22;9914;51.008;4.300;2022-10-31T11:09:46;17.80;99.90
19538;DHT22;9914;51.008;4.300;2022-10-31T11:12:26;17.80;99.90
19538;DHT22;9914;51.008;4.300;2022-10-31T11:14:55;17.80;99.90
19538;DHT22;9914;51.008;4.300;2022-10-31T11:20:01;17.70;99.90
19538;DHT22;9914;51.008;4.300;2022-10-31T11:22:27;17.50;99.90
19538;DHT22;9914;51.008;4.300;2022-10-31T11:24:52;17.30;99.90
19538;DHT22;9914;51.008;4.300;2022-10-31T11:27:23;17.20;99.90
19538;DHT22;9914;51.008;4.300;2022-10-31T11:29:51;17.20;99.90
19538;DHT22;9914;51.008;4.300;2022-10-31T11:32:27;17.20;99.90
19538;DHT22;9914;51.008;4.300;2022-10-31T11:35:00;17.20;99.90
19538;DHT22;9914;51.008;4.300;2022-10-31T11:37:29;17.30;99.90
19538;DHT22;9914;51.008;4.300;2022-10-31T11:39:58;17.50;99.90
19538;DHT22;9914;51.008;4.300;2022-10-31T11:42:27;17.60;99.90
19538;DHT22;9914;51.008;4.300;2022-10-31T11:44:55;17.60;99.90
19538;DHT22;9914;51.008;4.300;2022-10-31T11:47:28;17.60;99.90
19538;DHT22;9914;51.008;4.300;2022-10-31T11:49:56;17.70;99.90
19538;DHT22;9914;51.008;4.300;2022-10-31T11:52:28;17.80;99.90
19538;DHT22;9914;51.008;4.300;2022-10-31T11:55:03;17.90;99.90
19538;DHT22;9914;51.008;4.300;2022-10-31T11:57:47;17.90;99.90
19538;DHT22;9914;51.008;4.300;2022-10-31T12:05:30;18.40;99.90
19538;DHT22;9914;51.008;4.300;2022-10-31T12:07:58;18.40;99.90
19538;DHT22;9914;51.008;4.300;2022-10-31T12:10:29;18.50;99.90
19538;DHT22;9914;51.008;4.300;2022-10-31T12:13:30;18.50;99.90
19538;DHT22;9914;51.008;4.300;2022-10-31T12:16:12;18.70;99.90
19538;DHT22;9914;51.008;4.300;2022-10-31T12:19:36;18.80;99.90
19538;DHT22;9914;51.008;4.300;2022-10-31T12:30:09;19.30;99.90
19538;DHT22;9914;51.008;4.300;2022-10-31T12:32:41;19.50;99.90
19538;DHT22;9914;51.008;4.300;2022-10-31T12:35:44;19.60;99.90
19538;DHT22;9914;51.008;4.300;2022-10-31T12:38:37;19.40;99.90
19538;DHT22;9914;51.008;4.300;2022-10-31T12:55:58;20.60;99.90
19538;DHT22;9914;51.008;4.300;2022-10-31T12:58:40;20.60;99.90
19538;DHT22;9914;51.008;4.300;2022-10-31T13:01:27;20.90;99.90
19538;DHT22;9914;51.008;4.300;2022-10-31T13:07:03;21.10;99.90
19538;DHT22;9914;51.008;4.300;2022-10-31T13:12:20;20.70;99.90
19538;DHT22;9914;51.008;4.300;2022-10-31T13:14:53;20.90;99.90
19538;DHT22;9914;51.008;4.300;2022-10-31T13:17:37;21.10;99.90
19538;DHT22;9914;51.008;4.300;2022-10-31T13:22:55;21.20;99.90
19538;DHT22;9914;51.008;4.300;2022-10-31T13:25:25;21.00;99.90
19538;DHT22;9914;51.008;4.300;2022-10-31T13:28:01;21.00;99.90
19538;DHT22;9914;51.008;4.300;2022-10-31T13:30:31;21.20;99.90
19538;DHT22;9914;51.008;4.300;2022-10-31T13:33:11;21.40;99.90
19538;DHT22;9914;51.008;4.300;2022-10-31T13:41:32;21.20;99.90
19538;DHT22;9914;51.008;4.300;2022-10-31T13:44:10;21.20;99.90
19538;DHT22;9914;51.008;4.300;2022-10-31T13:46:39;21.10;99.90
19538;DHT22;9914;51.008;4.300;2022-10-31T13:52:14;20.80;99.90
19538;DHT22;9914;51.008;4.300;2022-10-31T13:54:48;20.70;99.90
19538;DHT22;9914;51.008;4.300;2022-10-31T13:59:55;20.60;99.90
19538;DHT22;9914;51.008;4.300;2022-10-31T14:02:29;20.70;99.90
19538;DHT22;9914;51.008;4.300;2022-10-31T14:05:41;20.60;99.90
19538;DHT22;9914;51.008;4.300;2022-10-31T14:07:48;20.60;99.90
19538;DHT22;9914;51.008;4.300;2022-10-31T14:12:50;20.60;99.90
19538;DHT22;9914;51.008;4.300;2022-10-31T14:15:20;20.40;99.90
19538;DHT22;9914;51.008;4.300;2022-10-31T14:17:58;20.60;99.90
19538;DHT22;9914;51.008;4.300;2022-10-31T14:26:05;20.70;99.90
19538;DHT22;9914;51.008;4.300;2022-10-31T14:28:33;20.40;99.90
19538;DHT22;9914;51.008;4.300;2022-10-31T14:30:59;20.40;99.90
19538;DHT22;9914;51.008;4.300;2022-10-31T14:33:28;20.50;99.90
19538;DHT22;9914;51.008;4.300;2022-10-31T14:36:04;20.70;99.90
19538;DHT22;9914;51.008;4.300;2022-10-31T14:44:43;20.50;99.90
19538;DHT22;9914;51.008;4.300;2022-10-31T14:49:57;20.40;99.90
19538;DHT22;9914;51.008;4.300;2022-10-31T14:52:28;20.50;99.90
19538;DHT22;9914;51.008;4.300;2022-10-31T14:54:55;20.40;99.90
19538;DHT22;9914;51.008;4.300;2022-10-31T14:57:23;20.40;99.90
19538;DHT22;9914;51.008;4.300;2022-10-31T14:59:53;20.40;99.90
19538;DHT22;9914;51.008;4.300;2022-10-31T15:02:26;20.40;99.90
19538;DHT22;9914;51.008;4.300;2022-10-31T15:04:54;20.20;99.90
19538;DHT22;9914;51.008;4.300;2022-10-31T15:07:23;20.20;99.90
19538;DHT22;9914;51.008;4.300;2022-10-31T15:12:26;19.80;99.90
19538;DHT22;9914;51.008;4.300;2022-10-31T15:14:52;19.80;99.90
19538;DHT22;9914;51.008;4.300;2022-10-31T15:17:19;19.80;99.90
19538;DHT22;9914;51.008;4.300;2022-10-31T15:19:46;19.70;99.90
19538;DHT22;9914;51.008;4.300;2022-10-31T15:22:17;19.70;99.90
19538;DHT22;9914;51.008;4.300;2022-10-31T15:24:43;19.80;99.90
19538;DHT22;9914;51.008;4.300;2022-10-31T15:27:15;19.70;99.90
19538;DHT22;9914;51.008;4.300;2022-10-31T15:29:51;19.70;99.90
19538;DHT22;9914;51.008;4.300;2022-10-31T15:32:25;19.50;99.90
19538;DHT22;9914;51.008;4.300;2022-10-31T15:34:52;19.50;99.90
19538;DHT22;9914;51.008;4.300;2022-10-31T15:37:21;19.40;99.90
19538;DHT22;9914;51.008;4.300;2022-10-31T15:39:48;19.30;99.90
19538;DHT22;9914;51.008;4.300;2022-10-31T15:42:19;19.20;99.90
19538;DHT22;9914;51.008;4.300;2022-10-31T15:44:49;19.10;99.90
19538;DHT22;9914;51.008;4.300;2022-10-31T15:47:18;19.00;99.90
19538;DHT22;9914;51.008;4.300;2022-10-31T15:50:06;19.00;99.90
19538;DHT22;9914;51.008;4.300;2022-10-31T15:52:44;18.90;99.90
19538;DHT22;9914;51.008;4.300;2022-10-31T15:55:24;18.80;99.90
19538;DHT22;9914;51.008;4.300;2022-10-31T15:57:52;18.70;99.90
19538;DHT22;9914;51.008;4.300;2022-10-31T16:00:30;18.70;99.90
19538;DHT22;9914;51.008;4.300;2022-10-31T16:03:06;18.70;99.90
19538;DHT22;9914;51.008;4.300;2022-10-31T16:05:56;18.50;99.90
19538;DHT22;9914;51.008;4.300;2022-10-31T16:10:57;18.20;99.90
19538;DHT22;9914;51.008;4.300;2022-10-31T16:13:33;18.10;99.90
19538;DHT22;9914;51.008;4.300;2022-10-31T16:16:01;18.10;99.90
19538;DHT22;9914;51.008;4.300;2022-10-31T16:18:30;18.10;99.90
19538;DHT22;9914;51.008;4.300;2022-10-31T16:21:00;17.90;99.90
19538;DHT22;9914;51.008;4.300;2022-10-31T16:23:26;17.90;99.90
19538;DHT22;9914;51.008;4.300;2022-10-31T16:25:52;18.00;99.90
19538;DHT22;9914;51.008;4.300;2022-10-31T16:28:21;18.10;99.90
19538;DHT22;9914;51.008;4.300;2022-10-31T16:30:57;18.20;99.90
19538;DHT22;9914;51.008;4.300;2022-10-31T16:33:29;18.00;99.90
19538;DHT22;9914;51.008;4.300;2022-10-31T16:35:58;17.70;99.90
19538;DHT22;9914;51.008;4.300;2022-10-31T16:38:24;17.40;99.90
19538;DHT22;9914;51.008;4.300;2022-10-31T16:40:50;17.40;99.90
19538;DHT22;9914;51.008;4.300;2022-10-31T16:43:17;17.20;99.90
19538;DHT22;9914;51.008;4.300;2022-10-31T16:45:46;17.10;99.90
19538;DHT22;9914;51.008;4.300;2022-10-31T16:48:14;17.10;99.90
19538;DHT22;9914;51.008;4.300;2022-10-31T16:50:44;17.10;99.90
19538;DHT22;9914;51.008;4.300;2022-10-31T16:53:10;17.00;99.90
19538;DHT22;9914;51.008;4.300;2022-10-31T16:56:05;17.00;99.90
19538;DHT22;9914;51.008;4.300;2022-10-31T16:58:34;17.00;99.90
19538;DHT22;9914;51.008;4.300;2022-10-31T17:01:02;16.80;99.90
19538;DHT22;9914;51.008;4.300;2022-10-31T17:03:29;16.90;99.90
19538;DHT22;9914;51.008;4.300;2022-10-31T17:05:55;16.80;99.90
19538;DHT22;9914;51.008;4.300;2022-10-31T17:08:21;16.80;99.90
19538;DHT22;9914;51.008;4.300;2022-10-31T17:10:50;16.60;99.90
19538;DHT22;9914;51.008;4.300;2022-10-31T17:13:19;16.60;99.90
19538;DHT22;9914;51.008;4.300;2022-10-31T17:15:49;16.60;99.90
19538;DHT22;9914;51.008;4.300;2022-10-31T17:18:16;16.50;99.90
19538;DHT22;9914;51.008;4.300;2022-10-31T17:20:43;16.30;99.90
19538;DHT22;9914;51.008;4.300;2022-10-31T17:23:10;16.30;99.90
19538;DHT22;9914;51.008;4.300;2022-10-31T17:25:36;16.20;99.90
19538;DHT22;9914;51.008;4.300;2022-10-31T17:28:01;16.10;99.90
19538;DHT22;9914;51.008;4.300;2022-10-31T17:30:27;16.00;99.90
19538;DHT22;9914;51.008;4.300;2022-10-31T17:32:53;16.10;99.90
19538;DHT22;9914;51.008;4.300;2022-10-31T17:35:20;16.10;99.90
19538;DHT22;9914;51.008;4.300;2022-10-31T17:37:46;16.10;99.90
19538;DHT22;9914;51.008;4.300;2022-10-31T17:40:14;16.00;99.90
19538;DHT22;9914;51.008;4.300;2022-10-31T17:42:40;16.00;99.90
19538;DHT22;9914;51.008;4.300;2022-10-31T17:45:07;16.00;99.90
19538;DHT22;9914;51.008;4.300;2022-10-31T17:47:33;16.00;99.90
19538;DHT22;9914;51.008;4.300;2022-10-31T17:50:00;15.90;99.90
19538;DHT22;9914;51.008;4.300;2022-10-31T17:52:26;15.80;99.90
19538;DHT22;9914;51.008;4.300;2022-10-31T17:54:52;15.80;99.90
19538;DHT22;9914;51.008;4.300;2022-10-31T17:57:17;15.80;99.90
19538;DHT22;9914;51.008;4.300;2022-10-31T17:59:43;15.80;99.90
19538;DHT22;9914;51.008;4.300;2022-10-31T18:02:09;15.80;99.90
19538;DHT22;9914;51.008;4.300;2022-10-31T18:04:36;15.80;99.90
19538;DHT22;9914;51.008;4.300;2022-10-31T18:07:02;15.80;99.90
19538;DHT22;9914;51.008;4.300;2022-10-31T18:09:28;15.70;99.90
19538;DHT22;9914;51.008;4.300;2022-10-31T18:11:53;15.70;99.90
19538;DHT22;9914;51.008;4.300;2022-10-31T18:14:19;15.80;99.90
19538;DHT22;9914;51.008;4.300;2022-10-31T18:16:45;15.80;99.90
19538;DHT22;9914;51.008;4.300;2022-10-31T18:19:12;15.80;99.90
19538;DHT22;9914;51.008;4.300;2022-10-31T18:21:39;15.80;99.90